Time;durP1;ratioP1;P1;durP2;ratioP2;P2;SDS_P1;SDS_P2;PMS_P1;PMS_P2;Temp;Humidity;BMP_temperature;BMP_pressure;BME280_temperature;BME280_humidity;BME280_pressure;Samples;Min_cycle;Max_cycle;Signal;HPM_P1;HPM_P2
2022/01/09 00:02:10;;;;;;;;;;;;;;;;;;4942388;28;20020;-73
2022/01/09 00:04:36;;;;;;;;;;;;;;;;;;4939602;28;20300;-69
2022/01/09 00:07:01;;;;;;;;;;;;;;;;;;4937997;28;20379;-69
2022/01/09 00:09:28;;;;;;;;;;;;;;;;;;4941950;29;19918;-68
2022/01/09 00:11:53;;;;;;;;;;;;;;;;;;4940024;28;19919;-70
2022/01/09 00:14:18;;;;;;;;;;;;;;;;;;4941111;29;19919;-67
2022/01/09 00:16:44;;;;;;;;;;;;;;;;;;4941159;28;19914;-69
2022/01/09 00:19:09;;;;;;;;;;;;;;;;;;4938479;28;19927;-71
2022/01/09 00:21:34;;;;;;;;;;;;;;;;;;4939542;29;19918;-67
2022/01/09 00:23:59;;;;;;;;;;;;;;;;;;4937569;28;19942;-70
2022/01/09 00:26:25;;;;;;;;;;;;;;;;;;4938371;28;19919;-69
2022/01/09 00:28:50;;;;;;;;;;;;;;;;;;4942580;29;19914;-70
2022/01/09 00:31:15;;;;;;;;;;;;;;;;;;4942677;29;19925;-70
2022/01/09 00:33:40;;;;;;;;;;;;;;;;;;4940964;28;19941;-68
2022/01/09 00:36:05;;;;;;;;;;;;;;;;;;4942194;29;19918;-70
2022/01/09 00:38:31;;;;;;;;;;;;;;;;;;4940941;28;19942;-69
2022/01/09 00:40:56;;;;;;;;;;;;;;;;;;4939600;29;19914;-70
2022/01/09 00:43:21;;;;;;;;;;;;;;;;;;4944009;28;19926;-68
2022/01/09 00:45:46;;;;;;;;;;;;;;;;;;4943511;28;19922;-69
2022/01/09 00:48:12;;;;;;;;;;;;;;;;;;4941026;29;20030;-70
2022/01/09 00:50:40;;;;;;;;;;;;;;;;;;4942095;28;19923;-68
2022/01/09 00:53:05;;;;;;;;;;;;;;;;;;4941203;29;20062;-67
2022/01/09 00:55:30;;;;;;;;;;;;;;;;;;4942571;28;19930;-68
2022/01/09 00:57:55;;;;;;;;;;;;;;;;;;4941805;29;20347;-68
2022/01/09 01:00:20;;;;;;;;;;;;;;;;;;4940986;29;20384;-71
2022/01/09 01:02:46;;;;;;;;;;;;;;;;;;4933843;28;20311;-69
2022/01/09 01:05:11;;;;;;;;;;;;;;;;;;4939167;29;20395;-68
2022/01/09 01:07:37;;;;;;;;;;;;;;;;;;4940198;29;19918;-69
2022/01/09 01:10:02;;;;;;;;;;;;;;;;;;4942703;28;19919;-71
2022/01/09 01:12:27;;;;;;;;;;;;;;;;;;4941323;28;19997;-68
2022/01/09 01:14:52;;;;;;;;;;;;;;;;;;4942570;28;20431;-70
2022/01/09 01:17:17;;;;;;;;;;;;;;;;;;4943449;29;19922;-68
2022/01/09 01:19:43;;;;;;;;;;;;;;;;;;4941782;28;19942;-71
2022/01/09 01:22:08;;;;;;;;;;;;;;;;;;4940569;29;20357;-68
2022/01/09 01:24:36;;;;;;;;;;;;;;;;;;4941716;28;20373;-70
2022/01/09 01:27:01;;;;;;;;;;;;;;;;;;4938334;29;19995;-71
2022/01/09 01:29:26;;;;;;;;;;;;;;;;;;4944208;28;20578;-70
2022/01/09 01:31:51;;;;;;;;;;;;;;;;;;4941452;28;19926;-70
2022/01/09 01:34:17;;;;;;;;;;;;;;;;;;4942425;28;19931;-70
2022/01/09 01:36:42;;;;;;;;;;;;;;;;;;4942951;28;19918;-69
2022/01/09 01:39:07;;;;;;;;;;;;;;;;;;4942709;28;20238;-68
2022/01/09 01:41:32;;;;;;;;;;;;;;;;;;4939423;28;19918;-70
2022/01/09 01:43:57;;;;;;;;;;;;;;;;;;4941780;28;19926;-69
2022/01/09 01:46:23;;;;;;;;;;;;;;;;;;4944387;29;19933;-72
2022/01/09 01:48:48;;;;;;;;;;;;;;;;;;4937667;28;19919;-69
2022/01/09 01:51:13;;;;;;;;;;;;;;;;;;4940897;28;20029;-67
2022/01/09 01:53:39;;;;;;;;;;;;;;;;;;4936004;29;19921;-67
2022/01/09 01:56:04;;;;;;;;;;;;;;;;;;4941049;29;20280;-68
2022/01/09 01:58:34;;;;;;;;;;;;;;;;;;4941746;28;19933;-70
2022/01/09 02:00:59;;;;;;;;;;;;;;;;;;4942127;28;20454;-69
2022/01/09 02:03:25;;;;;;;;;;;;;;;;;;4940682;28;19918;-68
2022/01/09 02:05:50;;;;;;;;;;;;;;;;;;4939622;29;20471;-69
2022/01/09 02:08:15;;;;;;;;;;;;;;;;;;4941609;28;19926;-70
2022/01/09 02:10:40;;;;;;;;;;;;;;;;;;4935632;29;19919;-70
2022/01/09 02:13:06;;;;;;;;;;;;;;;;;;4942582;29;19919;-69
2022/01/09 02:15:34;;;;;;;;;;;;;;;;;;4941168;28;19918;-70
2022/01/09 02:17:59;;;;;;;;;;;;;;;;;;4938343;29;19934;-68
2022/01/09 02:20:24;;;;;;;;;;;;;;;;;;4943539;28;19922;-70
2022/01/09 02:22:50;;;;;;;;;;;;;;;;;;4940860;28;19973;-70
2022/01/09 02:25:15;;;;;;;;;;;;;;;;;;4941124;28;19918;-70
2022/01/09 02:27:40;;;;;;;;;;;;;;;;;;4942162;29;20434;-70
2022/01/09 02:30:05;;;;;;;;;;;;;;;;;;4942809;29;19941;-67
2022/01/09 02:32:30;;;;;;;;;;;;;;;;;;4940566;29;20002;-69
2022/01/09 02:34:56;;;;;;;;;;;;;;;;;;4939131;28;19919;-70
2022/01/09 02:37:21;;;;;;;;;;;;;;;;;;4939485;28;19922;-69
2022/01/09 02:39:48;;;;;;;;;;;;;;;;;;4938065;29;19931;-70
2022/01/09 02:42:13;;;;;;;;;;;;;;;;;;4940910;29;20368;-68
2022/01/09 02:44:38;;;;;;;;;;;;;;;;;;4941916;28;19929;-68
2022/01/09 02:47:06;;;;;;;;;;;;;;;;;;4942696;28;19931;-69
2022/01/09 02:49:32;;;;;;;;;;;;;;;;;;4938814;29;19918;-70
2022/01/09 02:51:58;;;;;;;;;;;;;;;;;;4945324;29;19966;-71
2022/01/09 02:57:07;;;;;;;;;;;;;;;;;;4945770;28;20303;-68
2022/01/09 02:59:32;;;;;;;;;;;;;;;;;;4944442;28;19927;-69
2022/01/09 03:01:57;;;;;;;;;;;;;;;;;;4943797;28;19926;-70
2022/01/09 03:04:22;;;;;;;;;;;;;;;;;;4943326;29;19989;-70
2022/01/09 03:06:48;;;;;;;;;;;;;;;;;;4945398;28;19981;-69
2022/01/09 03:09:13;;;;;;;;;;;;;;;;;;4945127;28;20016;-70
2022/01/09 03:11:39;;;;;;;;;;;;;;;;;;4944990;28;19956;-69
2022/01/09 03:14:07;;;;;;;;;;;;;;;;;;4936505;29;20331;-72
2022/01/09 03:16:32;;;;;;;;;;;;;;;;;;4943467;28;19918;-69
2022/01/09 03:18:57;;;;;;;;;;;;;;;;;;4942925;28;19930;-70
2022/01/09 03:21:22;;;;;;;;;;;;;;;;;;4944104;29;19926;-69
2022/01/09 03:23:48;;;;;;;;;;;;;;;;;;4946520;28;20107;-70
2022/01/09 03:26:13;;;;;;;;;;;;;;;;;;4945020;28;19924;-70
2022/01/09 03:28:38;;;;;;;;;;;;;;;;;;4943914;29;19915;-70
2022/01/09 03:31:04;;;;;;;;;;;;;;;;;;4944783;28;19958;-70
2022/01/09 03:33:29;;;;;;;;;;;;;;;;;;4944442;28;20009;-69
2022/01/09 03:35:54;;;;;;;;;;;;;;;;;;4941050;28;20403;-70
2022/01/09 03:38:19;;;;;;;;;;;;;;;;;;4944219;28;20652;-68
2022/01/09 03:40:45;;;;;;;;;;;;;;;;;;4944835;28;20371;-68
2022/01/09 03:43:10;;;;;;;;;;;;;;;;;;4946353;28;20474;-70
2022/01/09 03:45:35;;;;;;;;;;;;;;;;;;4942264;28;19920;-69
2022/01/09 03:48:00;;;;;;;;;;;;;;;;;;4944502;29;20029;-70
2022/01/09 03:50:25;;;;;;;;;;;;;;;;;;4945172;29;20005;-70
2022/01/09 03:52:51;;;;;;;;;;;;;;;;;;4941727;28;20007;-72
2022/01/09 03:55:16;;;;;;;;;;;;;;;;;;4944573;28;20314;-72
2022/01/09 03:57:41;;;;;;;;;;;;;;;;;;4943044;29;19942;-72
2022/01/09 04:00:06;;;;;;;;;;;;;;;;;;4941693;28;19970;-73
2022/01/09 04:02:32;;;;;;;;;;;;;;;;;;4945318;29;20013;-72
2022/01/09 04:04:57;;;;;;;;;;;;;;;;;;4945253;29;19922;-71
2022/01/09 04:07:22;;;;;;;;;;;;;;;;;;4945110;29;19918;-72
2022/01/09 04:09:48;;;;;;;;;;;;;;;;;;4943456;29;19923;-71
2022/01/09 04:12:30;;;;;;;;;;;;;;;;;;4942867;29;20321;-71
2022/01/09 04:14:55;;;;;;;;;;;;;;;;;;4944967;29;20450;-71
2022/01/09 04:17:33;;;;;;;;;;;;;;;;;;4946183;29;20014;-71
2022/01/09 04:19:58;;;;;;;;;;;;;;;;;;4946168;29;20097;-70
2022/01/09 04:22:23;;;;;;;;;;;;;;;;;;4943831;28;20401;-69
2022/01/09 04:24:48;;;;;;;;;;;;;;;;;;4942148;28;20029;-70
2022/01/09 04:27:13;;;;;;;;;;;;;;;;;;4945024;29;20326;-69
2022/01/09 04:29:39;;;;;;;;;;;;;;;;;;4942720;28;20430;-70
2022/01/09 04:32:04;;;;;;;;;;;;;;;;;;4942955;29;19918;-70
2022/01/09 04:34:29;;;;;;;;;;;;;;;;;;4945331;29;19927;-69
2022/01/09 04:36:58;;;;;;;;;;;;;;;;;;4945583;28;19925;-69
2022/01/09 04:39:23;;;;;;;;;;;;;;;;;;4943919;29;19974;-70
2022/01/09 04:41:49;;;;;;;;;;;;;;;;;;4944690;28;20030;-70
2022/01/09 04:44:14;;;;;;;;;;;;;;;;;;4942442;29;19925;-70
2022/01/09 04:46:46;;;;;;;;;;;;;;;;;;4942464;28;19977;-70
2022/01/09 04:49:12;;;;;;;;;;;;;;;;;;4938064;29;19918;-70
2022/01/09 04:51:37;;;;;;;;;;;;;;;;;;4945065;28;19950;-72
2022/01/09 04:54:04;;;;;;;;;;;;;;;;;;4942128;29;20375;-71
2022/01/09 04:56:29;;;;;;;;;;;;;;;;;;4942953;29;19928;-72
2022/01/09 04:58:55;;;;;;;;;;;;;;;;;;4944607;29;19926;-71
2022/01/09 05:01:20;;;;;;;;;;;;;;;;;;4946412;28;20013;-69
2022/01/09 05:03:45;;;;;;;;;;;;;;;;;;4943544;28;20327;-68
2022/01/09 05:06:10;;;;;;;;;;;;;;;;;;4939666;29;20394;-67
2022/01/09 05:08:35;;;;;;;;;;;;;;;;;;4941192;29;20787;-68
2022/01/09 05:11:01;;;;;;;;;;;;;;;;;;4939413;28;19919;-68
2022/01/09 05:13:26;;;;;;;;;;;;;;;;;;4941465;28;19922;-69
2022/01/09 05:15:51;;;;;;;;;;;;;;;;;;4940500;29;20794;-69
2022/01/09 05:18:16;;;;;;;;;;;;;;;;;;4943683;28;19926;-70
2022/01/09 05:20:42;;;;;;;;;;;;;;;;;;4942128;28;19961;-68
2022/01/09 05:23:07;;;;;;;;;;;;;;;;;;4939078;28;19914;-68
2022/01/09 05:25:32;;;;;;;;;;;;;;;;;;4944451;28;19918;-71
2022/01/09 05:27:57;;;;;;;;;;;;;;;;;;4944592;28;19922;-68
2022/01/09 05:30:22;;;;;;;;;;;;;;;;;;4941664;28;19926;-69
2022/01/09 05:32:48;;;;;;;;;;;;;;;;;;4944834;29;20354;-68
2022/01/09 05:35:13;;;;;;;;;;;;;;;;;;4942771;28;19922;-68
2022/01/09 05:37:38;;;;;;;;;;;;;;;;;;4938162;29;19918;-69
2022/01/09 05:40:03;;;;;;;;;;;;;;;;;;4942703;29;19927;-68
2022/01/09 05:42:28;;;;;;;;;;;;;;;;;;4942251;28;19950;-67
2022/01/09 05:44:54;;;;;;;;;;;;;;;;;;4940917;28;19957;-69
2022/01/09 05:47:19;;;;;;;;;;;;;;;;;;4940288;29;20237;-67
2022/01/09 05:49:45;;;;;;;;;;;;;;;;;;4940878;28;19961;-68
2022/01/09 05:52:10;;;;;;;;;;;;;;;;;;4942553;28;20081;-69
2022/01/09 05:54:35;;;;;;;;;;;;;;;;;;4941238;28;19926;-69
2022/01/09 05:57:00;;;;;;;;;;;;;;;;;;4943986;28;19986;-67
2022/01/09 05:59:25;;;;;;;;;;;;;;;;;;4943606;28;20431;-71
2022/01/09 06:01:51;;;;;;;;;;;;;;;;;;4941876;28;20708;-68
2022/01/09 06:04:16;;;;;;;;;;;;;;;;;;4941229;29;20292;-67
2022/01/09 06:06:41;;;;;;;;;;;;;;;;;;4937843;29;19918;-68
2022/01/09 06:09:08;;;;;;;;;;;;;;;;;;4939463;28;19973;-68
2022/01/09 06:11:34;;;;;;;;;;;;;;;;;;4924035;28;19922;-68
2022/01/09 06:13:59;;;;;;;;;;;;;;;;;;4940650;29;20339;-67
2022/01/09 06:16:24;;;;;;;;;;;;;;;;;;4942978;28;20407;-68
2022/01/09 06:18:49;;;;;;;;;;;;;;;;;;4940629;28;20399;-67
2022/01/09 06:21:15;;;;;;;;;;;;;;;;;;4938004;29;19922;-67
2022/01/09 06:23:40;;;;;;;;;;;;;;;;;;4938715;28;20319;-68
2022/01/09 06:26:05;;;;;;;;;;;;;;;;;;4942489;28;20291;-67
2022/01/09 06:28:30;;;;;;;;;;;;;;;;;;4939219;28;19918;-67
2022/01/09 06:30:55;;;;;;;;;;;;;;;;;;4941246;28;19922;-68
2022/01/09 06:33:21;;;;;;;;;;;;;;;;;;4941583;28;20454;-69
2022/01/09 06:35:46;;;;;;;;;;;;;;;;;;4942531;29;20415;-67
2022/01/09 06:38:11;;;;;;;;;;;;;;;;;;4942477;29;20371;-68
2022/01/09 06:40:36;;;;;;;;;;;;;;;;;;4938821;29;20370;-69
2022/01/09 06:43:01;;;;;;;;;;;;;;;;;;4941240;28;20335;-68
2022/01/09 06:45:27;;;;;;;;;;;;;;;;;;4939330;28;19940;-67
2022/01/09 06:47:52;;;;;;;;;;;;;;;;;;4939288;28;19957;-67
2022/01/09 06:50:17;;;;;;;;;;;;;;;;;;4940367;28;20489;-67
2022/01/09 06:52:43;;;;;;;;;;;;;;;;;;4939055;28;19926;-67
2022/01/09 06:55:08;;;;;;;;;;;;;;;;;;4937443;28;19929;-68
2022/01/09 06:57:33;;;;;;;;;;;;;;;;;;4941420;29;19954;-68
2022/01/09 06:59:58;;;;;;;;;;;;;;;;;;4940194;29;20021;-69
2022/01/09 07:02:23;;;;;;;;;;;;;;;;;;4940768;29;20013;-66
2022/01/09 07:04:49;;;;;;;;;;;;;;;;;;4940936;28;19918;-66
2022/01/09 07:07:14;;;;;;;;;;;;;;;;;;4940732;29;20379;-67
2022/01/09 07:09:39;;;;;;;;;;;;;;;;;;4941104;28;19945;-69
2022/01/09 07:12:04;;;;;;;;;;;;;;;;;;4939433;28;19919;-69
2022/01/09 07:14:30;;;;;;;;;;;;;;;;;;4938769;28;20272;-68
2022/01/09 07:16:55;;;;;;;;;;;;;;;;;;4937969;28;19918;-69
2022/01/09 07:19:20;;;;;;;;;;;;;;;;;;4942590;28;19937;-68
2022/01/09 07:21:45;;;;;;;;;;;;;;;;;;4940434;28;19923;-68
2022/01/09 07:24:10;;;;;;;;;;;;;;;;;;4942261;29;20129;-68
2022/01/09 07:26:36;;;;;;;;;;;;;;;;;;4934793;29;19919;-68
2022/01/09 07:29:01;;;;;;;;;;;;;;;;;;4941758;29;19919;-69
2022/01/09 07:31:26;;;;;;;;;;;;;;;;;;4941160;29;20321;-68
2022/01/09 07:33:51;;;;;;;;;;;;;;;;;;4941295;29;19973;-68
2022/01/09 07:36:19;;;;;;;;;;;;;;;;;;4944978;28;19925;-67
2022/01/09 07:38:44;;;;;;;;;;;;;;;;;;4937450;29;19934;-67
2022/01/09 07:41:12;;;;;;;;;;;;;;;;;;4925326;29;19922;-67
2022/01/09 07:43:37;;;;;;;;;;;;;;;;;;4943529;28;20306;-67
2022/01/09 07:46:02;;;;;;;;;;;;;;;;;;4942754;29;19914;-67
2022/01/09 07:48:28;;;;;;;;;;;;;;;;;;4944642;28;19988;-69
2022/01/09 07:50:53;;;;;;;;;;;;;;;;;;4943383;28;19973;-67
2022/01/09 07:53:23;;;;;;;;;;;;;;;;;;4942844;28;19923;-66
2022/01/09 07:55:48;;;;;;;;;;;;;;;;;;4942775;29;19929;-67
2022/01/09 07:58:13;;;;;;;;;;;;;;;;;;4943631;29;19927;-67
2022/01/09 08:00:38;;;;;;;;;;;;;;;;;;4940645;28;19922;-67
2022/01/09 08:03:03;;;;;;;;;;;;;;;;;;4942300;29;19919;-67
2022/01/09 08:05:29;;;;;;;;;;;;;;;;;;4945035;28;19918;-67
2022/01/09 08:07:54;;;;;;;;;;;;;;;;;;4942148;28;19991;-67
2022/01/09 08:10:19;;;;;;;;;;;;;;;;;;4939425;29;19923;-67
2022/01/09 08:12:44;;;;;;;;;;;;;;;;;;4941489;29;19919;-67
2022/01/09 08:15:10;;;;;;;;;;;;;;;;;;4942841;28;19919;-66
2022/01/09 08:17:35;;;;;;;;;;;;;;;;;;4943266;29;20516;-68
2022/01/09 08:20:00;;;;;;;;;;;;;;;;;;4944863;28;20607;-67
2022/01/09 08:22:29;;;;;;;;;;;;;;;;;;4940220;29;20327;-67
2022/01/09 08:24:54;;;;;;;;;;;;;;;;;;4943022;29;19926;-67
2022/01/09 08:27:20;;;;;;;;;;;;;;;;;;4945900;29;19922;-67
2022/01/09 08:29:45;;;;;;;;;;;;;;;;;;4942544;28;19918;-67
2022/01/09 08:32:12;;;;;;;;;;;;;;;;;;4944847;29;19925;-67
2022/01/09 08:34:37;;;;;;;;;;;;;;;;;;4937500;29;19918;-67
2022/01/09 08:37:02;;;;;;;;;;;;;;;;;;4943987;28;19919;-67
2022/01/09 08:39:28;;;;;;;;;;;;;;;;;;4939775;29;19934;-67
2022/01/09 08:41:53;;;;;;;;;;;;;;;;;;4945656;29;19942;-67
2022/01/09 08:44:18;;;;;;;;;;;;;;;;;;4940920;29;19923;-67
2022/01/09 08:46:43;;;;;;;;;;;;;;;;;;4943321;28;19925;-67
2022/01/09 08:49:09;;;;;;;;;;;;;;;;;;4942448;28;20662;-66
2022/01/09 08:51:34;;;;;;;;;;;;;;;;;;4941220;29;20383;-66
2022/01/09 08:53:59;;;;;;;;;;;;;;;;;;4943189;28;20391;-67
2022/01/09 08:56:24;;;;;;;;;;;;;;;;;;4943006;28;19922;-66
2022/01/09 08:58:49;;;;;;;;;;;;;;;;;;4941297;28;19983;-68
2022/01/09 09:01:15;;;;;;;;;;;;;;;;;;4939578;28;19919;-67
2022/01/09 09:03:43;;;;;;;;;;;;;;;;;;4941559;29;19945;-67
2022/01/09 09:06:08;;;;;;;;;;;;;;;;;;4942176;29;19919;-67
2022/01/09 09:08:33;;;;;;;;;;;;;;;;;;4942854;28;20206;-67
2022/01/09 09:10:58;;;;;;;;;;;;;;;;;;4945039;28;19965;-67
2022/01/09 09:13:24;;;;;;;;;;;;;;;;;;4942757;28;19918;-67
2022/01/09 09:15:49;;;;;;;;;;;;;;;;;;4939156;28;19926;-67
2022/01/09 09:18:14;;;;;;;;;;;;;;;;;;4943514;28;19919;-67
2022/01/09 09:20:39;;;;;;;;;;;;;;;;;;4941725;29;20291;-67
2022/01/09 09:23:05;;;;;;;;;;;;;;;;;;4942840;29;19923;-67
2022/01/09 09:25:30;;;;;;;;;;;;;;;;;;4942760;28;19973;-67
2022/01/09 09:27:55;;;;;;;;;;;;;;;;;;4941186;28;20006;-67
2022/01/09 09:30:20;;;;;;;;;;;;;;;;;;4941213;29;19919;-67
2022/01/09 09:32:45;;;;;;;;;;;;;;;;;;4939963;29;19918;-67
2022/01/09 09:35:11;;;;;;;;;;;;;;;;;;4943612;28;20080;-67
2022/01/09 09:37:36;;;;;;;;;;;;;;;;;;4942377;28;19918;-67
2022/01/09 09:40:01;;;;;;;;;;;;;;;;;;4944792;28;19926;-67
2022/01/09 09:42:26;;;;;;;;;;;;;;;;;;4943863;29;19922;-68
2022/01/09 09:44:52;;;;;;;;;;;;;;;;;;4941441;28;19923;-68
2022/01/09 09:47:17;;;;;;;;;;;;;;;;;;4939854;29;19915;-68
2022/01/09 09:49:42;;;;;;;;;;;;;;;;;;4942063;29;20061;-68
2022/01/09 09:52:07;;;;;;;;;;;;;;;;;;4940070;28;20330;-67
2022/01/09 09:54:32;;;;;;;;;;;;;;;;;;4944358;29;20421;-67
2022/01/09 09:56:58;;;;;;;;;;;;;;;;;;4940894;28;19993;-67
2022/01/09 09:59:23;;;;;;;;;;;;;;;;;;4939633;28;19933;-67
2022/01/09 10:01:48;;;;;;;;;;;;;;;;;;4940366;29;19957;-67
2022/01/09 10:04:13;;;;;;;;;;;;;;;;;;4940619;28;19973;-67
2022/01/09 10:06:39;;;;;;;;;;;;;;;;;;4941137;28;19923;-67
2022/01/09 10:09:04;;;;;;;;;;;;;;;;;;4943200;28;19918;-67
2022/01/09 10:11:29;;;;;;;;;;;;;;;;;;4943395;28;20286;-67
2022/01/09 10:13:54;;;;;;;;;;;;;;;;;;4941207;29;19927;-65
2022/01/09 10:16:19;;;;;;;;;;;;;;;;;;4941041;29;19970;-67
2022/01/09 10:18:45;;;;;;;;;;;;;;;;;;4927573;28;19926;-68
2022/01/09 10:21:10;;;;;;;;;;;;;;;;;;4939220;28;19925;-67
2022/01/09 10:23:35;;;;;;;;;;;;;;;;;;4941562;28;20381;-67
2022/01/09 10:26:00;;;;;;;;;;;;;;;;;;4940966;29;19926;-67
2022/01/09 10:28:25;;;;;;;;;;;;;;;;;;4943841;28;20351;-67
2022/01/09 10:30:51;;;;;;;;;;;;;;;;;;4940266;28;19956;-67
2022/01/09 10:33:16;;;;;;;;;;;;;;;;;;4942103;28;20647;-68
2022/01/09 10:35:41;;;;;;;;;;;;;;;;;;4941206;28;19973;-67
2022/01/09 10:38:07;;;;;;;;;;;;;;;;;;4942967;29;19918;-67
2022/01/09 10:40:32;;;;;;;;;;;;;;;;;;4940073;29;19919;-66
2022/01/09 10:42:58;;;;;;;;;;;;;;;;;;4941901;29;19965;-66
2022/01/09 10:45:23;;;;;;;;;;;;;;;;;;4942066;28;19919;-66
2022/01/09 10:47:48;;;;;;;;;;;;;;;;;;4934965;28;19926;-66
2022/01/09 10:50:13;;;;;;;;;;;;;;;;;;4938362;28;19919;-65
2022/01/09 10:52:41;;;;;;;;;;;;;;;;;;4937135;28;19978;-67
2022/01/09 10:55:06;;;;;;;;;;;;;;;;;;4925432;28;20290;-65
2022/01/09 10:57:37;;;;;;;;;;;;;;;;;;4930476;28;19923;-65
2022/01/09 11:00:02;;;;;;;;;;;;;;;;;;4939085;28;20747;-66
2022/01/09 11:02:28;;;;;;;;;;;;;;;;;;4922205;28;20013;-68
2022/01/09 11:04:53;;;;;;;;;;;;;;;;;;4935462;28;19918;-69
2022/01/09 11:07:18;;;;;;;;;;;;;;;;;;4929950;28;20051;-67
2022/01/09 11:09:46;;;;;;;;;;;;;;;;;;4937729;28;20383;-68
2022/01/09 11:12:16;;;;;;;;;;;;;;;;;;4943453;29;19919;-68
2022/01/09 11:14:41;;;;;;;;;;;;;;;;;;4934500;28;19928;-69
2022/01/09 11:17:07;;;;;;;;;;;;;;;;;;4939173;28;19922;-67
2022/01/09 11:19:33;;;;;;;;;;;;;;;;;;4938423;28;20398;-68
2022/01/09 11:22:02;;;;;;;;;;;;;;;;;;4935466;28;19930;-68
2022/01/09 11:24:27;;;;;;;;;;;;;;;;;;4941246;28;19923;-66
2022/01/09 11:26:52;;;;;;;;;;;;;;;;;;4934284;28;19925;-69
2022/01/09 11:29:17;;;;;;;;;;;;;;;;;;4935636;28;20701;-69
2022/01/09 11:31:42;;;;;;;;;;;;;;;;;;4943271;28;19918;-67
2022/01/09 11:34:08;;;;;;;;;;;;;;;;;;4939406;28;19918;-68
2022/01/09 11:36:33;;;;;;;;;;;;;;;;;;4944013;28;19918;-66
2022/01/09 11:38:58;;;;;;;;;;;;;;;;;;4931591;29;20506;-67
2022/01/09 11:41:24;;;;;;;;;;;;;;;;;;4935627;29;20454;-66
2022/01/09 11:43:49;;;;;;;;;;;;;;;;;;4941803;29;19953;-66
2022/01/09 11:46:14;;;;;;;;;;;;;;;;;;4932883;29;19919;-66
2022/01/09 11:48:40;;;;;;;;;;;;;;;;;;4944052;28;19918;-68
2022/01/09 11:51:05;;;;;;;;;;;;;;;;;;4934671;28;19946;-68
2022/01/09 11:53:30;;;;;;;;;;;;;;;;;;4933140;28;19926;-68
2022/01/09 11:55:55;;;;;;;;;;;;;;;;;;4940496;28;20030;-67
2022/01/09 11:58:22;;;;;;;;;;;;;;;;;;4935349;28;19918;-68
2022/01/09 12:00:47;;;;;;;;;;;;;;;;;;4941816;29;19918;-69
2022/01/09 12:03:12;;;;;;;;;;;;;;;;;;4933400;28;19919;-67
2022/01/09 12:05:37;;;;;;;;;;;;;;;;;;4935186;29;19926;-67
2022/01/09 12:08:04;;;;;;;;;;;;;;;;;;4938713;28;20301;-68
2022/01/09 12:10:29;;;;;;;;;;;;;;;;;;4932470;28;19946;-68
2022/01/09 12:12:54;;;;;;;;;;;;;;;;;;4940125;28;20061;-68
2022/01/09 12:15:19;;;;;;;;;;;;;;;;;;4936829;28;19923;-67
2022/01/09 12:17:45;;;;;;;;;;;;;;;;;;4932211;28;20372;-68
2022/01/09 12:20:10;;;;;;;;;;;;;;;;;;4938658;28;19953;-67
2022/01/09 12:22:36;;;;;;;;;;;;;;;;;;4936841;29;20013;-67
2022/01/09 12:25:01;;;;;;;;;;;;;;;;;;4941602;28;19977;-67
2022/01/09 12:27:26;;;;;;;;;;;;;;;;;;4935006;29;19942;-69
2022/01/09 12:29:51;;;;;;;;;;;;;;;;;;4935081;29;20265;-68
2022/01/09 12:32:17;;;;;;;;;;;;;;;;;;4940523;28;20614;-69
2022/01/09 12:34:42;;;;;;;;;;;;;;;;;;4922372;29;20335;-67
2022/01/09 12:37:07;;;;;;;;;;;;;;;;;;4939163;29;19925;-66
2022/01/09 12:39:32;;;;;;;;;;;;;;;;;;4937776;28;20064;-66
2022/01/09 12:41:58;;;;;;;;;;;;;;;;;;4936691;28;20439;-66
2022/01/09 12:44:23;;;;;;;;;;;;;;;;;;4940842;29;19919;-67
2022/01/09 12:46:48;;;;;;;;;;;;;;;;;;4935772;29;19918;-67
2022/01/09 12:49:15;;;;;;;;;;;;;;;;;;4944186;28;19919;-67
2022/01/09 12:51:40;;;;;;;;;;;;;;;;;;4936784;29;19918;-67
2022/01/09 12:54:06;;;;;;;;;;;;;;;;;;4937365;29;19965;-66
2022/01/09 12:56:31;;;;;;;;;;;;;;;;;;4944014;28;19929;-68
2022/01/09 12:58:56;;;;;;;;;;;;;;;;;;4934921;28;19927;-67
2022/01/09 13:01:22;;;;;;;;;;;;;;;;;;4943282;28;20291;-66
2022/01/09 13:03:47;;;;;;;;;;;;;;;;;;4938941;29;20287;-66
2022/01/09 13:06:13;;;;;;;;;;;;;;;;;;4935852;29;19923;-66
2022/01/09 13:08:38;;;;;;;;;;;;;;;;;;4941958;28;19923;-67
2022/01/09 13:11:03;;;;;;;;;;;;;;;;;;4935167;28;19915;-66
2022/01/09 13:13:28;;;;;;;;;;;;;;;;;;4940679;28;19934;-66
2022/01/09 13:15:54;;;;;;;;;;;;;;;;;;4933539;28;20422;-65
2022/01/09 13:18:19;;;;;;;;;;;;;;;;;;4937237;28;19922;-66
2022/01/09 13:20:44;;;;;;;;;;;;;;;;;;4930044;28;19919;-65
2022/01/09 13:23:09;;;;;;;;;;;;;;;;;;4932732;28;20638;-66
2022/01/09 13:25:35;;;;;;;;;;;;;;;;;;4939185;28;19929;-66
2022/01/09 13:28:00;;;;;;;;;;;;;;;;;;4932011;28;19930;-67
2022/01/09 13:30:25;;;;;;;;;;;;;;;;;;4932131;28;19929;-67
2022/01/09 13:32:50;;;;;;;;;;;;;;;;;;4938618;28;19922;-65
2022/01/09 13:35:15;;;;;;;;;;;;;;;;;;4931196;28;19919;-65
2022/01/09 13:37:41;;;;;;;;;;;;;;;;;;4940552;28;19919;-67
2022/01/09 13:40:06;;;;;;;;;;;;;;;;;;4931908;28;19927;-66
2022/01/09 13:42:31;;;;;;;;;;;;;;;;;;4933567;28;19998;-66
2022/01/09 13:44:56;;;;;;;;;;;;;;;;;;4939740;29;19926;-65
2022/01/09 13:47:22;;;;;;;;;;;;;;;;;;4935509;29;19918;-64
2022/01/09 13:49:47;;;;;;;;;;;;;;;;;;4940053;28;19918;-65
2022/01/09 13:52:12;;;;;;;;;;;;;;;;;;4934956;29;19961;-66
2022/01/09 13:54:37;;;;;;;;;;;;;;;;;;4932522;28;19929;-66
2022/01/09 13:57:03;;;;;;;;;;;;;;;;;;4939438;29;20435;-65
2022/01/09 13:59:28;;;;;;;;;;;;;;;;;;4936715;29;20443;-66
2022/01/09 14:01:54;;;;;;;;;;;;;;;;;;4931326;29;20085;-66
2022/01/09 14:04:19;;;;;;;;;;;;;;;;;;4933233;29;19918;-66
2022/01/09 14:06:45;;;;;;;;;;;;;;;;;;4932489;28;19930;-66
2022/01/09 14:09:10;;;;;;;;;;;;;;;;;;4927245;28;19996;-67
2022/01/09 14:11:35;;;;;;;;;;;;;;;;;;4927416;28;19958;-67
2022/01/09 14:14:00;;;;;;;;;;;;;;;;;;4937799;28;19918;-66
2022/01/09 14:16:26;;;;;;;;;;;;;;;;;;4931317;28;19933;-66
2022/01/09 14:18:51;;;;;;;;;;;;;;;;;;4936019;29;19926;-65
2022/01/09 14:21:16;;;;;;;;;;;;;;;;;;4936754;28;19918;-67
2022/01/09 14:23:41;;;;;;;;;;;;;;;;;;4932032;28;20324;-67
2022/01/09 14:26:07;;;;;;;;;;;;;;;;;;4935834;28;20312;-67
2022/01/09 14:28:32;;;;;;;;;;;;;;;;;;4934096;28;20262;-67
2022/01/09 14:30:57;;;;;;;;;;;;;;;;;;4931566;28;19919;-66
2022/01/09 14:33:23;;;;;;;;;;;;;;;;;;4937380;28;19918;-66
2022/01/09 14:35:48;;;;;;;;;;;;;;;;;;4932352;28;20360;-66
2022/01/09 14:38:13;;;;;;;;;;;;;;;;;;4936458;28;20268;-67
2022/01/09 14:40:38;;;;;;;;;;;;;;;;;;4932561;28;19923;-68
2022/01/09 14:43:04;;;;;;;;;;;;;;;;;;4931786;28;19925;-66
2022/01/09 14:45:29;;;;;;;;;;;;;;;;;;4939418;28;19961;-66
2022/01/09 14:47:54;;;;;;;;;;;;;;;;;;4930977;29;19990;-66
2022/01/09 14:50:19;;;;;;;;;;;;;;;;;;4939925;28;20318;-67
2022/01/09 14:52:44;;;;;;;;;;;;;;;;;;4936007;28;19941;-66
2022/01/09 14:55:10;;;;;;;;;;;;;;;;;;4931292;28;20489;-66
2022/01/09 14:57:35;;;;;;;;;;;;;;;;;;4939670;29;20390;-66
2022/01/09 15:00:00;;;;;;;;;;;;;;;;;;4933172;28;20013;-66
2022/01/09 15:02:25;;;;;;;;;;;;;;;;;;4934807;28;20464;-67
2022/01/09 15:04:51;;;;;;;;;;;;;;;;;;4929770;28;20458;-67
2022/01/09 15:07:16;;;;;;;;;;;;;;;;;;4932106;28;20446;-65
2022/01/09 15:09:41;;;;;;;;;;;;;;;;;;4937259;28;20331;-65
2022/01/09 15:12:06;;;;;;;;;;;;;;;;;;4934923;28;20030;-65
2022/01/09 15:14:32;;;;;;;;;;;;;;;;;;4937614;28;19970;-65
2022/01/09 15:16:57;;;;;;;;;;;;;;;;;;4932049;28;19919;-65
2022/01/09 15:19:22;;;;;;;;;;;;;;;;;;4932371;28;19937;-65
2022/01/09 15:21:48;;;;;;;;;;;;;;;;;;4938995;29;19922;-64
2022/01/09 15:24:13;;;;;;;;;;;;;;;;;;4932380;29;19919;-65
2022/01/09 15:26:38;;;;;;;;;;;;;;;;;;4939987;28;19973;-64
2022/01/09 15:29:03;;;;;;;;;;;;;;;;;;4930288;28;19918;-66
2022/01/09 15:31:29;;;;;;;;;;;;;;;;;;4931440;28;20014;-66
2022/01/09 15:33:54;;;;;;;;;;;;;;;;;;4936805;28;20496;-65
2022/01/09 15:36:19;;;;;;;;;;;;;;;;;;4917695;28;20375;-65
2022/01/09 15:38:44;;;;;;;;;;;;;;;;;;4938153;29;19932;-66
2022/01/09 15:41:10;;;;;;;;;;;;;;;;;;4931083;28;20455;-66
2022/01/09 15:43:35;;;;;;;;;;;;;;;;;;4931757;28;19927;-65
2022/01/09 15:46:00;;;;;;;;;;;;;;;;;;4936784;28;19929;-65
2022/01/09 15:48:25;;;;;;;;;;;;;;;;;;4931161;28;20320;-65
2022/01/09 15:50:51;;;;;;;;;;;;;;;;;;4936397;28;19934;-65
2022/01/09 15:53:16;;;;;;;;;;;;;;;;;;4931825;28;19919;-65
2022/01/09 15:55:41;;;;;;;;;;;;;;;;;;4933562;28;19973;-65
2022/01/09 15:58:07;;;;;;;;;;;;;;;;;;4940605;29;19984;-64
2022/01/09 16:00:33;;;;;;;;;;;;;;;;;;4934633;29;19937;-65
2022/01/09 16:02:58;;;;;;;;;;;;;;;;;;4932901;29;19918;-66
2022/01/09 16:05:24;;;;;;;;;;;;;;;;;;4931595;29;19918;-66
2022/01/09 16:07:49;;;;;;;;;;;;;;;;;;4935169;28;19977;-64
2022/01/09 16:10:15;;;;;;;;;;;;;;;;;;4942551;29;19919;-64
2022/01/09 16:12:44;;;;;;;;;;;;;;;;;;4934413;28;19944;-66
2022/01/09 16:15:09;;;;;;;;;;;;;;;;;;4939789;28;19956;-65
2022/01/09 16:17:35;;;;;;;;;;;;;;;;;;4927469;29;20379;-64
2022/01/09 16:20:00;;;;;;;;;;;;;;;;;;4931962;29;20388;-65
2022/01/09 16:22:25;;;;;;;;;;;;;;;;;;4937569;28;19919;-64
2022/01/09 16:24:50;;;;;;;;;;;;;;;;;;4931084;28;19918;-64
2022/01/09 16:27:16;;;;;;;;;;;;;;;;;;4937392;28;20001;-64
2022/01/09 16:29:41;;;;;;;;;;;;;;;;;;4932607;28;20031;-65
2022/01/09 16:32:06;;;;;;;;;;;;;;;;;;4935517;28;20375;-65
2022/01/09 16:34:31;;;;;;;;;;;;;;;;;;4938410;28;20001;-65
2022/01/09 16:36:59;;;;;;;;;;;;;;;;;;4931856;29;19919;-64